createdAt,value
2018-05-02T00:00:52.397Z,61.30
2018-05-02T00:03:18.596Z,61.40
2018-05-02T00:05:44.799Z,61.60
2018-05-02T00:08:11.012Z,62.20
2018-05-02T00:10:37.270Z,61.80
2018-05-02T00:13:03.544Z,62.60
2018-05-02T00:15:29.755Z,62.20
2018-05-02T00:17:55.965Z,62.60
2018-05-02T00:20:22.226Z,62.00
2018-05-02T00:22:48.490Z,61.60
2018-05-02T00:25:14.698Z,61.60
2018-05-02T00:27:40.938Z,62.00
2018-05-02T00:30:07.152Z,61.20
2018-05-02T00:32:33.384Z,61.60
2018-05-02T00:34:59.624Z,61.80
2018-05-02T00:37:25.854Z,60.90
2018-05-02T00:39:52.879Z,61.50
2018-05-02T00:42:19.097Z,61.40
2018-05-02T00:44:45.318Z,61.90
2018-05-02T00:47:11.531Z,62.00
2018-05-02T00:49:37.741Z,61.60
2018-05-02T00:52:03.981Z,62.10
2018-05-02T00:54:30.194Z,62.40
2018-05-02T00:56:56.389Z,62.50
2018-05-02T00:59:23.158Z,62.30
2018-05-02T01:01:49.725Z,62.30
2018-05-02T01:04:15.985Z,62.30
2018-05-02T01:06:42.269Z,62.50
2018-05-02T01:09:08.516Z,62.40
2018-05-02T01:11:34.723Z,62.60
2018-05-02T01:14:00.977Z,62.10
2018-05-02T01:16:27.198Z,62.10
2018-05-02T01:18:53.393Z,62.20
2018-05-02T01:21:19.999Z,63.10
2018-05-02T01:23:46.188Z,63.10
2018-05-02T01:26:12.447Z,62.50
2018-05-02T01:28:38.701Z,61.80
2018-05-02T01:31:05.317Z,62.10
2018-05-02T01:33:31.510Z,62.10
2018-05-02T01:35:57.733Z,61.90
2018-05-02T01:38:23.979Z,61.50
2018-05-02T01:40:50.201Z,61.80
2018-05-02T01:43:16.435Z,62.20
2018-05-02T01:45:42.676Z,61.80
2018-05-02T01:48:08.900Z,62.00
2018-05-02T01:50:35.120Z,62.20
2018-05-02T01:53:01.370Z,62.70
2018-05-02T01:55:27.632Z,62.30
2018-05-02T01:57:54.207Z,61.50
2018-05-02T02:00:20.445Z,61.50
2018-05-02T02:02:46.632Z,61.10
2018-05-02T02:05:12.852Z,61.00
2018-05-02T02:07:39.075Z,60.90
2018-05-02T02:10:05.334Z,60.20
2018-05-02T02:12:31.545Z,59.50
2018-05-02T02:14:57.845Z,60.30
2018-05-02T02:17:24.078Z,60.10
2018-05-02T02:19:50.663Z,60.10
2018-05-02T02:22:16.899Z,60.10
2018-05-02T02:24:44.014Z,59.90
2018-05-02T02:27:10.226Z,60.80
2018-05-02T02:29:36.867Z,61.10
2018-05-02T02:32:03.461Z,60.60
2018-05-02T02:34:29.662Z,60.60
2018-05-02T02:36:55.915Z,61.10
2018-05-02T02:39:22.128Z,61.20
2018-05-02T02:41:48.361Z,60.80
2018-05-02T02:44:14.602Z,60.50
2018-05-02T02:46:40.833Z,60.10
2018-05-02T02:49:07.721Z,59.90
2018-05-02T02:51:34.004Z,59.80
2018-05-02T02:54:00.186Z,59.40
2018-05-02T02:56:26.434Z,60.50
2018-05-02T02:58:52.651Z,60.70
2018-05-02T03:01:18.888Z,59.80
2018-05-02T03:03:45.092Z,59.10
2018-05-02T03:06:11.337Z,59.20
2018-05-02T03:08:37.553Z,59.40
2018-05-02T03:11:03.751Z,59.60
2018-05-02T03:13:30.368Z,59.50
2018-05-02T03:15:57.554Z,59.50
2018-05-02T03:18:23.765Z,58.70
2018-05-02T03:20:50.035Z,59.20
2018-05-02T03:23:16.236Z,59.40
2018-05-02T03:25:42.479Z,59.50
2018-05-02T03:28:08.713Z,59.90
2018-05-02T03:30:34.942Z,59.90
2018-05-02T03:33:01.174Z,60.00
2018-05-02T03:35:27.404Z,60.10
2018-05-02T03:37:53.668Z,60.20
2018-05-02T03:40:20.034Z,60.70
2018-05-02T03:42:46.291Z,61.50
2018-05-02T03:45:12.548Z,61.20
2018-05-02T03:47:39.706Z,61.40
2018-05-02T03:50:05.952Z,60.70
2018-05-02T03:52:32.226Z,61.20
2018-05-02T03:54:58.444Z,61.10
2018-05-02T03:57:24.626Z,61.20
2018-05-02T04:00:03.003Z,60.60
2018-05-02T04:02:41.316Z,60.10
2018-05-02T04:05:19.595Z,60.60
2018-05-02T04:07:45.797Z,61.10
2018-05-02T04:10:12.582Z,60.60
2018-05-02T04:12:38.855Z,61.70
2018-05-02T04:15:05.073Z,61.00
2018-05-02T04:17:31.299Z,61.50
2018-05-02T04:19:57.527Z,61.70
2018-05-02T04:22:25.558Z,61.60
2018-05-02T04:24:51.775Z,61.60
2018-05-02T04:27:18.032Z,61.40
2018-05-02T04:29:44.277Z,61.20
2018-05-02T04:32:10.512Z,61.00
2018-05-02T04:34:37.671Z,60.90
2018-05-02T04:37:03.915Z,61.10
2018-05-02T04:39:30.133Z,61.40
2018-05-02T04:41:56.348Z,60.90
2018-05-02T04:44:22.548Z,61.10
2018-05-02T04:46:48.788Z,61.50
2018-05-02T04:49:15.017Z,61.80
2018-05-02T04:51:41.238Z,60.90
2018-05-02T04:54:07.440Z,61.40
2018-05-02T04:56:33.665Z,60.80
2018-05-02T04:59:00.255Z,61.30
2018-05-02T05:01:26.455Z,61.30
2018-05-02T05:03:52.696Z,61.30
2018-05-02T05:06:22.530Z,60.30
2018-05-02T05:08:48.719Z,60.60
2018-05-02T05:11:14.955Z,60.80
2018-05-02T05:13:41.168Z,60.90
2018-05-02T05:16:07.393Z,60.80
2018-05-02T05:18:33.690Z,60.10
2018-05-02T05:20:59.883Z,59.90
2018-05-02T05:23:26.121Z,60.20
2018-05-02T05:25:52.416Z,59.90
2018-05-02T05:28:18.763Z,61.30
2018-05-02T05:30:45.443Z,59.90
2018-05-02T05:33:12.052Z,59.70
2018-05-02T05:35:38.307Z,59.70
2018-05-02T05:38:04.552Z,59.70
2018-05-02T05:40:31.150Z,59.90
2018-05-02T05:42:57.363Z,59.80
2018-05-02T05:45:23.587Z,59.50
2018-05-02T05:47:49.805Z,59.70
2018-05-02T05:50:16.013Z,60.40
2018-05-02T05:52:42.261Z,60.30
2018-05-02T05:55:08.463Z,60.20
2018-05-02T05:57:34.668Z,60.50
2018-05-02T06:00:00.927Z,59.90
2018-05-02T06:02:27.147Z,60.30
2018-05-02T06:04:53.415Z,59.80
2018-05-02T06:07:20.498Z,60.20
2018-05-02T06:09:46.726Z,60.10
2018-05-02T06:12:12.991Z,60.20
2018-05-02T06:14:39.244Z,60.00
2018-05-02T06:17:05.524Z,60.60
2018-05-02T06:19:32.100Z,61.00
2018-05-02T06:21:58.327Z,60.90
2018-05-02T06:24:25.199Z,61.60
2018-05-02T06:26:51.415Z,59.70
2018-05-02T06:29:17.672Z,60.20
2018-05-02T06:31:43.955Z,60.50
2018-05-02T06:34:10.210Z,57.40
2018-05-02T06:36:36.433Z,57.30
2018-05-02T06:39:02.689Z,57.90
2018-05-02T06:41:28.922Z,58.60
2018-05-02T06:43:55.202Z,56.70
2018-05-02T06:46:21.411Z,58.10
2018-05-02T06:48:47.672Z,57.30
2018-05-02T06:51:13.949Z,57.10
2018-05-02T06:53:40.211Z,57.90
2018-05-02T06:56:06.475Z,59.70
2018-05-02T06:58:32.704Z,60.70
2018-05-02T07:00:58.938Z,59.50
2018-05-02T07:03:25.159Z,57.80
2018-05-02T07:05:51.385Z,57.20
2018-05-02T07:08:17.579Z,57.70
2018-05-02T07:10:44.638Z,57.60
2018-05-02T07:13:10.872Z,58.60
2018-05-02T07:15:37.102Z,59.60
2018-05-02T07:18:03.373Z,57.60
2018-05-02T07:20:29.986Z,58.40
2018-05-02T07:22:56.289Z,58.40
2018-05-02T07:25:22.520Z,59.10
2018-05-02T07:27:48.736Z,57.10
2018-05-02T07:30:15.020Z,56.80
2018-05-02T07:32:41.721Z,57.10
2018-05-02T07:35:07.943Z,57.10
2018-05-02T07:37:34.171Z,57.50
2018-05-02T07:40:00.406Z,57.80
2018-05-02T07:42:26.681Z,56.30
2018-05-02T07:44:52.953Z,56.20
2018-05-02T07:47:19.223Z,57.10
2018-05-02T07:49:45.476Z,57.50
2018-05-02T07:52:11.725Z,57.20
2018-05-02T07:54:37.987Z,55.50
2018-05-02T07:57:04.296Z,55.70
2018-05-02T07:59:30.465Z,56.60
2018-05-02T08:01:57.117Z,55.30
2018-05-02T08:04:23.713Z,55.20
2018-05-02T08:06:49.971Z,55.20
2018-05-02T08:09:16.606Z,57.30
2018-05-02T08:11:43.204Z,56.50
2018-05-02T08:14:09.432Z,56.50
2018-05-02T08:16:35.680Z,56.20
2018-05-02T08:19:02.704Z,56.00
2018-05-02T08:21:28.962Z,56.60
2018-05-02T08:23:55.196Z,56.10
2018-05-02T08:26:21.422Z,56.10
2018-05-02T08:28:47.653Z,56.20
2018-05-02T08:31:13.897Z,56.10
2018-05-02T08:33:40.493Z,55.50
2018-05-02T08:36:06.788Z,55.50
2018-05-02T08:38:33.057Z,54.80
2018-05-02T08:40:59.331Z,54.80
2018-05-02T08:43:25.548Z,54.80
2018-05-02T08:45:51.798Z,54.90
2018-05-02T08:48:18.035Z,56.60
2018-05-02T08:50:44.282Z,56.40
2018-05-02T08:53:10.468Z,55.90
2018-05-02T08:55:36.670Z,54.90
2018-05-02T08:58:02.927Z,55.70
2018-05-02T09:00:29.522Z,56.20
2018-05-02T09:02:55.733Z,56.20
2018-05-02T09:05:22.000Z,55.10
2018-05-02T09:07:48.207Z,55.50
2018-05-02T09:10:14.444Z,55.70
2018-05-02T09:12:40.703Z,53.50
2018-05-02T09:15:07.350Z,55.00
2018-05-02T09:17:33.581Z,55.00
2018-05-02T09:20:00.799Z,53.60
2018-05-02T09:22:27.038Z,53.60
2018-05-02T09:24:53.313Z,54.10
2018-05-02T09:27:19.550Z,52.50
2018-05-02T09:29:45.808Z,54.50
2018-05-02T09:32:12.052Z,53.70
2018-05-02T09:34:38.272Z,55.40
2018-05-02T09:37:04.516Z,53.60
2018-05-02T09:39:31.164Z,52.50
2018-05-02T09:41:57.397Z,52.50
2018-05-02T09:44:23.656Z,52.60
2018-05-02T09:46:50.440Z,52.70
2018-05-02T09:49:16.664Z,52.60
2018-05-02T09:51:42.928Z,52.10
2018-05-02T09:54:09.161Z,53.30
2018-05-02T09:56:35.387Z,54.10
2018-05-02T09:59:01.640Z,52.90
2018-05-02T10:01:27.871Z,53.30
2018-05-02T10:03:54.164Z,52.50
2018-05-02T10:06:20.804Z,52.50
2018-05-02T10:08:47.044Z,52.50
2018-05-02T10:11:13.315Z,52.90
2018-05-02T10:13:39.616Z,53.60
2018-05-02T10:16:05.868Z,53.10
2018-05-02T10:18:32.122Z,50.90
2018-05-02T10:20:58.362Z,53.10
2018-05-02T10:23:25.043Z,51.90
2018-05-02T10:25:51.293Z,51.90
2018-05-02T10:28:17.561Z,51.90
2018-05-02T10:30:43.777Z,51.70
2018-05-02T10:33:10.027Z,51.40
2018-05-02T10:35:36.305Z,51.50
2018-05-02T10:38:02.595Z,50.70
2018-05-02T10:40:28.820Z,50.40
2018-05-02T10:42:55.080Z,49.10
2018-05-02T10:45:21.299Z,51.40
2018-05-02T10:47:47.523Z,48.50
2018-05-02T10:50:13.919Z,50.10
2018-05-02T10:52:40.677Z,51.20
2018-05-02T10:55:07.867Z,51.20
2018-05-02T10:57:34.106Z,51.80
2018-05-02T11:00:00.517Z,50.50
2018-05-02T11:02:26.768Z,51.90
2018-05-02T11:04:53.060Z,48.90
2018-05-02T11:07:19.597Z,47.60
2018-05-02T11:09:45.808Z,46.80
2018-05-02T11:12:12.038Z,44.60
2018-05-02T11:14:38.253Z,41.70
2018-05-02T11:17:04.879Z,39.00
2018-05-02T11:19:31.490Z,41.10
2018-05-02T11:21:57.763Z,41.10
2018-05-02T11:24:24.340Z,41.40
2018-05-02T11:26:50.599Z,41.40
2018-05-02T11:29:16.813Z,42.20
2018-05-02T11:31:44.041Z,42.80
2018-05-02T11:34:10.296Z,43.70
2018-05-02T11:36:36.560Z,44.20
2018-05-02T11:39:03.260Z,45.40
2018-05-02T11:41:29.579Z,45.40
2018-05-02T11:43:55.825Z,46.90
2018-05-02T11:46:22.959Z,47.80
2018-05-02T11:48:49.190Z,48.80
2018-05-02T11:51:15.403Z,48.40
2018-05-02T11:53:41.656Z,49.10
2018-05-02T11:56:07.904Z,49.90
2018-05-02T11:58:34.172Z,49.30
2018-05-02T12:01:00.432Z,50.30
2018-05-02T12:03:26.700Z,48.60
2018-05-02T12:05:53.321Z,47.10
2018-05-02T12:08:19.541Z,47.10
2018-05-02T12:10:46.742Z,48.00
2018-05-02T12:13:13.011Z,49.70
2018-05-02T12:15:39.251Z,51.30
2018-05-02T12:18:06.278Z,49.30
2018-05-02T12:20:32.483Z,50.10
2018-05-02T12:22:58.769Z,49.80
2018-05-02T12:25:24.997Z,48.70
2018-05-02T12:27:51.707Z,48.80
2018-05-02T12:30:18.310Z,50.10
2018-05-02T12:32:44.536Z,50.20
2018-05-02T12:35:10.854Z,47.80
2018-05-02T12:37:37.136Z,46.70
2018-05-02T12:40:03.382Z,47.50
2018-05-02T12:42:29.664Z,48.60
2018-05-02T12:44:55.891Z,48.60
2018-05-02T12:47:22.137Z,49.00
2018-05-02T12:49:48.374Z,48.90
2018-05-02T12:52:14.630Z,49.20
2018-05-02T12:54:40.848Z,49.80
2018-05-02T12:57:07.129Z,49.70
2018-05-02T12:59:33.374Z,49.30
2018-05-02T13:01:59.658Z,49.00
2018-05-02T13:04:25.874Z,49.00
2018-05-02T13:06:52.459Z,50.30
2018-05-02T13:09:18.748Z,50.30
2018-05-02T13:11:45.307Z,52.30
2018-05-02T13:14:11.548Z,52.30
2018-05-02T13:16:37.815Z,51.90
2018-05-02T13:19:04.064Z,52.00
2018-05-02T13:21:30.280Z,49.20
2018-05-02T13:23:56.547Z,50.10
2018-05-02T13:26:22.794Z,49.20
2018-05-02T13:28:49.006Z,50.90
2018-05-02T13:31:15.248Z,50.20
2018-05-02T13:33:42.470Z,49.10
2018-05-02T13:36:08.676Z,47.70
2018-05-02T13:38:34.912Z,48.00
2018-05-02T13:41:01.205Z,46.90
2018-05-02T13:43:27.488Z,48.50
2018-05-02T13:45:53.775Z,48.60
2018-05-02T13:48:20.025Z,48.90
2018-05-02T13:50:46.259Z,48.00
2018-05-02T13:53:12.932Z,47.80
2018-05-02T13:55:39.175Z,47.80
2018-05-02T13:58:05.427Z,48.70
2018-05-02T14:00:31.654Z,48.60
2018-05-02T14:02:57.934Z,49.80
2018-05-02T14:05:24.191Z,49.30
2018-05-02T14:07:50.419Z,50.10
2018-05-02T14:10:16.685Z,49.90
2018-05-02T14:12:43.878Z,49.70
2018-05-02T14:15:10.197Z,50.30
2018-05-02T14:17:36.465Z,48.80
2018-05-02T14:20:02.719Z,50.60
2018-05-02T14:22:28.953Z,49.50
2018-05-02T14:24:55.199Z,49.70
2018-05-02T14:27:21.783Z,50.50
2018-05-02T14:29:48.042Z,50.50
2018-05-02T14:32:14.300Z,49.50
2018-05-02T14:34:40.931Z,50.40
2018-05-02T14:37:07.509Z,50.10
2018-05-02T14:39:33.748Z,50.10
2018-05-02T14:41:59.970Z,49.60
2018-05-02T14:44:26.199Z,50.70
2018-05-02T14:46:52.487Z,53.00
2018-05-02T14:49:19.122Z,53.50
2018-05-02T14:51:45.347Z,53.50
2018-05-02T14:54:11.968Z,53.20
2018-05-02T14:56:38.188Z,53.20
2018-05-02T14:59:04.447Z,51.50
2018-05-02T15:01:30.753Z,52.90
2018-05-02T15:03:56.964Z,53.10
2018-05-02T15:06:23.225Z,53.30
2018-05-02T15:08:49.455Z,53.90
2018-05-02T15:11:15.712Z,53.20
2018-05-02T15:13:41.960Z,53.70
2018-05-02T15:16:08.208Z,54.60
2018-05-02T15:18:34.407Z,53.10
2018-05-02T15:21:00.677Z,52.40
2018-05-02T15:23:26.941Z,53.90
2018-05-02T15:25:54.056Z,53.70
2018-05-02T15:28:20.597Z,52.70
2018-05-02T15:30:47.209Z,52.80
2018-05-02T15:33:13.471Z,52.80
2018-05-02T15:35:41.687Z,51.70
2018-05-02T15:38:07.922Z,51.70
2018-05-02T15:40:34.142Z,51.30
2018-05-02T15:43:00.436Z,52.60
2018-05-02T15:45:27.060Z,54.50
2018-05-02T15:47:53.688Z,53.20
2018-05-02T15:50:19.970Z,53.20
2018-05-02T15:52:46.227Z,53.70
2018-05-02T15:55:12.438Z,53.60
2018-05-02T15:57:38.681Z,53.70
2018-05-02T16:00:04.974Z,53.40
2018-05-02T16:02:31.214Z,54.70
2018-05-02T16:04:57.457Z,54.60
2018-05-02T16:07:24.464Z,53.80
2018-05-02T16:09:50.707Z,54.00
2018-05-02T16:12:16.982Z,53.30
2018-05-02T16:14:43.732Z,52.30
2018-05-02T16:17:09.979Z,49.90
2018-05-02T16:19:36.639Z,49.80
2018-05-02T16:22:02.896Z,49.80
2018-05-02T16:24:29.121Z,51.50
2018-05-02T16:26:56.109Z,52.20
2018-05-02T16:29:22.383Z,51.90
2018-05-02T16:31:48.571Z,51.30
2018-05-02T16:34:14.790Z,52.80
2018-05-02T16:36:41.051Z,51.80
2018-05-02T16:39:07.311Z,53.30
2018-05-02T16:41:33.571Z,52.80
2018-05-02T16:43:59.842Z,53.70
2018-05-02T16:46:26.083Z,53.70
2018-05-02T16:48:52.325Z,53.60
2018-05-02T16:51:18.609Z,52.90
2018-05-02T16:53:46.816Z,51.70
2018-05-02T16:56:13.055Z,52.10
2018-05-02T16:58:39.274Z,53.30
2018-05-02T17:01:05.563Z,54.30
2018-05-02T17:03:32.173Z,53.60
2018-05-02T17:05:58.410Z,53.60
2018-05-02T17:08:24.657Z,55.40
2018-05-02T17:10:51.260Z,54.90
2018-05-02T17:13:17.520Z,55.00
2018-05-02T17:15:43.754Z,55.30
2018-05-02T17:18:10.066Z,54.70
2018-05-02T17:20:36.445Z,55.80
2018-05-02T17:23:02.689Z,56.60
2018-05-02T17:25:28.948Z,57.70
2018-05-02T17:27:56.073Z,58.50
2018-05-02T17:30:22.281Z,59.80
2018-05-02T17:32:48.531Z,58.60
2018-05-02T17:35:14.740Z,59.50
2018-05-02T17:37:40.973Z,58.80
2018-05-02T17:40:07.259Z,59.70
2018-05-02T17:42:33.893Z,60.30
2018-05-02T17:45:00.520Z,60.50
2018-05-02T17:47:26.784Z,60.50
2018-05-02T17:49:53.018Z,60.30
2018-05-02T17:52:19.259Z,61.10
2018-05-02T17:54:45.550Z,60.60
2018-05-02T17:57:12.179Z,61.80
2018-05-02T17:59:38.789Z,62.50
2018-05-02T18:02:05.041Z,62.50
2018-05-02T18:04:31.347Z,61.40
2018-05-02T18:06:57.829Z,61.70
2018-05-02T18:09:24.097Z,61.70
2018-05-02T18:11:50.336Z,62.20
2018-05-02T18:14:16.542Z,61.90
2018-05-02T18:16:42.828Z,62.00
2018-05-02T18:19:09.711Z,62.60
2018-05-02T18:21:36.032Z,62.90
2018-05-02T18:24:02.263Z,63.10
2018-05-02T18:26:28.515Z,63.60
2018-05-02T18:28:55.480Z,63.30
2018-05-02T18:31:21.733Z,63.10
2018-05-02T18:33:47.942Z,63.60
2018-05-02T18:36:14.243Z,63.50
2018-05-02T18:38:40.516Z,63.70
2018-05-02T18:41:07.131Z,63.40
2018-05-02T18:43:33.423Z,63.40
2018-05-02T18:45:59.655Z,64.00
2018-05-02T18:48:25.912Z,64.10
2018-05-02T18:50:53.173Z,63.90
2018-05-02T18:53:19.544Z,63.50
2018-05-02T18:55:45.712Z,63.60
2018-05-02T18:58:11.980Z,63.40
2018-05-02T19:00:38.602Z,63.90
2018-05-02T19:03:04.929Z,63.90
2018-05-02T19:05:31.225Z,64.50
2018-05-02T19:07:57.524Z,64.30
2018-05-02T19:10:23.852Z,64.40
2018-05-02T19:12:50.140Z,64.40
2018-05-02T19:15:16.411Z,64.70
2018-05-02T19:17:48.640Z,64.70
2018-05-02T19:20:21.019Z,64.10
2018-05-02T19:22:52.123Z,63.80
2018-05-02T19:25:24.366Z,64.30
2018-05-02T19:27:50.670Z,64.50
2018-05-02T19:30:17.324Z,65.00
2018-05-02T19:32:50.032Z,64.60
2018-05-02T19:35:16.339Z,64.60
2018-05-02T19:37:42.677Z,64.70
2018-05-02T19:40:15.065Z,64.20
2018-05-02T19:42:47.387Z,64.10
2018-05-02T19:45:13.660Z,64.50
2018-05-02T19:47:40.891Z,64.40
2018-05-02T19:50:07.206Z,64.30
2018-05-02T19:52:39.842Z,64.50
2018-05-02T19:55:06.127Z,64.50
2018-05-02T19:57:32.734Z,64.50
2018-05-02T19:59:58.969Z,64.50
2018-05-02T20:02:31.327Z,63.80
2018-05-02T20:04:57.629Z,64.00
2018-05-02T20:07:29.969Z,63.60
2018-05-02T20:10:02.326Z,63.30
2018-05-02T20:12:34.975Z,64.20
2018-05-02T20:15:01.248Z,64.20
2018-05-02T20:17:27.561Z,64.80
2018-05-02T20:19:54.851Z,64.50
2018-05-02T20:22:21.089Z,64.50
2018-05-02T20:24:47.363Z,65.00
2018-05-02T20:27:13.713Z,64.80
2018-05-02T20:29:39.960Z,63.80
2018-05-02T20:32:07.017Z,63.70
2018-05-02T20:34:33.250Z,64.30
2018-05-02T20:36:59.473Z,64.50
2018-05-02T20:39:25.730Z,64.30
2018-05-02T20:41:51.989Z,63.80
2018-05-02T20:44:18.592Z,64.10
2018-05-02T20:46:44.887Z,64.10
2018-05-02T20:49:11.155Z,64.60
2018-05-02T20:51:37.383Z,64.30
2018-05-02T20:54:03.727Z,64.50
2018-05-02T20:56:30.040Z,64.10
2018-05-02T20:58:56.294Z,64.40
2018-05-02T21:01:22.553Z,64.50
2018-05-02T21:03:48.810Z,65.00
2018-05-02T21:06:15.881Z,64.90
2018-05-02T21:08:42.143Z,64.40
2018-05-02T21:11:08.756Z,64.60
2018-05-02T21:13:35.038Z,64.60
2018-05-02T21:16:01.287Z,65.50
2018-05-02T21:18:27.523Z,64.70
2018-05-02T21:20:53.790Z,64.80
2018-05-02T21:23:20.052Z,64.50
2018-05-02T21:25:46.281Z,65.00
2018-05-02T21:28:12.554Z,65.40
2018-05-02T21:30:39.596Z,64.70
2018-05-02T21:33:05.821Z,64.70
2018-05-02T21:35:32.102Z,64.60
2018-05-02T21:37:58.863Z,64.30
2018-05-02T21:40:25.105Z,65.30
2018-05-02T21:42:51.391Z,64.90
2018-05-02T21:45:17.989Z,64.90
2018-05-02T21:47:44.339Z,64.90
2018-05-02T21:50:10.886Z,65.50
2018-05-02T21:52:37.499Z,65.50
2018-05-02T21:55:04.775Z,65.50
2018-05-02T21:57:31.939Z,65.00
2018-05-02T21:59:58.194Z,65.00
2018-05-02T22:02:24.444Z,64.60
2018-05-02T22:04:50.671Z,65.00
2018-05-02T22:07:17.452Z,64.90
2018-05-02T22:09:44.065Z,64.70
2018-05-02T22:12:10.289Z,64.70
2018-05-02T22:14:36.515Z,64.90
2018-05-02T22:17:02.812Z,64.30
2018-05-02T22:19:29.308Z,64.50
2018-05-02T22:21:56.386Z,64.40
2018-05-02T22:24:22.739Z,64.00
2018-05-02T22:26:48.952Z,63.80
2018-05-02T22:29:15.177Z,63.80
2018-05-02T22:31:41.399Z,64.00
2018-05-02T22:34:07.605Z,63.70
2018-05-02T22:36:34.387Z,63.90
2018-05-02T22:39:00.630Z,63.90
2018-05-02T22:41:26.858Z,64.30
2018-05-02T22:43:53.082Z,65.40
2018-05-02T22:46:19.317Z,64.90
2018-05-02T22:48:45.523Z,65.30
2018-05-02T22:51:11.763Z,65.00
2018-05-02T22:53:37.971Z,64.60
2018-05-02T22:56:04.177Z,64.10
2018-05-02T22:58:30.454Z,64.50
2018-05-02T23:00:56.655Z,63.50
2018-05-02T23:03:22.896Z,63.10
2018-05-02T23:05:49.144Z,62.70
2018-05-02T23:08:16.206Z,62.50
2018-05-02T23:10:42.420Z,63.00
2018-05-02T23:13:08.683Z,63.90
2018-05-02T23:15:34.918Z,64.60
2018-05-02T23:18:01.122Z,65.30
2018-05-02T23:20:27.371Z,65.70
2018-05-02T23:22:53.581Z,65.10
2018-05-02T23:25:20.171Z,63.80
2018-05-02T23:27:46.399Z,63.80
2018-05-02T23:30:12.720Z,64.50
2018-05-02T23:32:38.876Z,63.40
2018-05-02T23:35:05.108Z,63.80
2018-05-02T23:37:31.316Z,64.00
2018-05-02T23:39:57.573Z,64.30
2018-05-02T23:42:23.819Z,63.70
2018-05-02T23:44:50.061Z,64.00
2018-05-02T23:47:16.274Z,63.90
2018-05-02T23:49:42.527Z,65.40
2018-05-02T23:52:08.736Z,64.70
2018-05-02T23:54:34.960Z,64.10
2018-05-02T23:57:01.227Z,64.20
2018-05-02T23:59:27.468Z,64.90
